<?xml version="1.0" encoding="UTF-8" standalone="no" ?>
<gpx xmlns="http://www.topografix.com/GPX/1/1" xmlns:xsi="http://www.w3.org/2001/XMLSchema-instance" xsi:schemaLocation="http://www.topografix.com/GPX/1/1 http://www.topografix.com/GPX/1/1/gpx.xsd" version="1.1" creator="VisuGPX - https://www.visugpx.com">
  <metadata>
    <name>Course à pied dans l'après-midi</name>
  </metadata>
  <trk>
    <name><![CDATA[Course à pied dans l'après-midi_1]]></name>
    <trkseg>
      <trkpt lat="48.64829" lon="7.16695">
        <ele>364</ele>
        <time>2023-09-30T12:13:20Z</time>
      </trkpt>
      <trkpt lat="48.6483" lon="7.16693">
        <ele>363.9</ele>
        <time>2023-09-30T12:13:21Z</time>
      </trkpt>
      <trkpt lat="48.64831" lon="7.16664">
        <ele>362.3</ele>
        <time>2023-09-30T12:13:30Z</time>
      </trkpt>
      <trkpt lat="48.64833" lon="7.16637">
        <ele>360.2</ele>
        <time>2023-09-30T12:13:37Z</time>
      </trkpt>
      <trkpt lat="48.64833" lon="7.16633">
        <ele>359.8</ele>
        <time>2023-09-30T12:13:41Z</time>
      </trkpt>
      <trkpt lat="48.64829" lon="7.16661">
        <ele>361.8</ele>
        <time>2023-09-30T12:13:51Z</time>
      </trkpt>
      <trkpt lat="48.64827" lon="7.16691">
        <ele>364.3</ele>
        <time>2023-09-30T12:14:00Z</time>
      </trkpt>
      <trkpt lat="48.64827" lon="7.16719">
        <ele>366.4</ele>
        <time>2023-09-30T12:14:10Z</time>
      </trkpt>
      <trkpt lat="48.64825" lon="7.16749">
        <ele>368.6</ele>
        <time>2023-09-30T12:14:20Z</time>
      </trkpt>
      <trkpt lat="48.64826" lon="7.1678">
        <ele>370.6</ele>
        <time>2023-09-30T12:14:28Z</time>
      </trkpt>
      <trkpt lat="48.64831" lon="7.16809">
        <ele>372.4</ele>
        <time>2023-09-30T12:14:36Z</time>
      </trkpt>
      <trkpt lat="48.64836" lon="7.16838">
        <ele>374.7</ele>
        <time>2023-09-30T12:14:44Z</time>
      </trkpt>
      <trkpt lat="48.64839" lon="7.16867">
        <ele>377.1</ele>
        <time>2023-09-30T12:14:53Z</time>
      </trkpt>
      <trkpt lat="48.64833" lon="7.16894">
        <ele>379.1</ele>
        <time>2023-09-30T12:15:01Z</time>
      </trkpt>
      <trkpt lat="48.64821" lon="7.16916">
        <ele>381.2</ele>
        <time>2023-09-30T12:15:08Z</time>
      </trkpt>
      <trkpt lat="48.64809" lon="7.16939">
        <ele>383.5</ele>
        <time>2023-09-30T12:15:15Z</time>
      </trkpt>
      <trkpt lat="48.64802" lon="7.16965">
        <ele>385.6</ele>
        <time>2023-09-30T12:15:23Z</time>
      </trkpt>
      <trkpt lat="48.64801" lon="7.16985">
        <ele>387.2</ele>
        <time>2023-09-30T12:15:30Z</time>
      </trkpt>
      <trkpt lat="48.64798" lon="7.16996">
        <ele>388.2</ele>
        <time>2023-09-30T12:16:02Z</time>
      </trkpt>
      <trkpt lat="48.648" lon="7.16998">
        <ele>388.5</ele>
        <time>2023-09-30T12:16:04Z</time>
      </trkpt>
      <trkpt lat="48.6481" lon="7.17023">
        <ele>390.5</ele>
        <time>2023-09-30T12:16:11Z</time>
      </trkpt>
      <trkpt lat="48.64806" lon="7.17051">
        <ele>392.6</ele>
        <time>2023-09-30T12:16:21Z</time>
      </trkpt>
      <trkpt lat="48.64813" lon="7.17059">
        <ele>393.7</ele>
        <time>2023-09-30T12:16:28Z</time>
      </trkpt>
      <trkpt lat="48.6482" lon="7.17062">
        <ele>394.5</ele>
        <time>2023-09-30T12:16:31Z</time>
      </trkpt>
      <trkpt lat="48.64828" lon="7.17064">
        <ele>394.7</ele>
        <time>2023-09-30T12:16:34Z</time>
      </trkpt>
      <trkpt lat="48.64833" lon="7.17059">
        <ele>393.9</ele>
        <time>2023-09-30T12:16:38Z</time>
      </trkpt>
      <trkpt lat="48.64834" lon="7.17051">
        <ele>393.3</ele>
        <time>2023-09-30T12:16:42Z</time>
      </trkpt>
      <trkpt lat="48.64834" lon="7.17025">
        <ele>391.2</ele>
        <time>2023-09-30T12:16:52Z</time>
      </trkpt>
      <trkpt lat="48.64836" lon="7.16997">
        <ele>389.2</ele>
        <time>2023-09-30T12:17:00Z</time>
      </trkpt>
      <trkpt lat="48.64828" lon="7.1697">
        <ele>386.8</ele>
        <time>2023-09-30T12:17:06Z</time>
      </trkpt>
      <trkpt lat="48.64823" lon="7.1694">
        <ele>384.2</ele>
        <time>2023-09-30T12:17:12Z</time>
      </trkpt>
      <trkpt lat="48.64826" lon="7.16912">
        <ele>381.9</ele>
        <time>2023-09-30T12:17:18Z</time>
      </trkpt>
      <trkpt lat="48.64838" lon="7.16889">
        <ele>379.7</ele>
        <time>2023-09-30T12:17:25Z</time>
      </trkpt>
      <trkpt lat="48.64837" lon="7.16862">
        <ele>377.6</ele>
        <time>2023-09-30T12:17:34Z</time>
      </trkpt>
      <trkpt lat="48.64831" lon="7.16836">
        <ele>375.4</ele>
        <time>2023-09-30T12:17:41Z</time>
      </trkpt>
      <trkpt lat="48.64828" lon="7.16807">
        <ele>372.9</ele>
        <time>2023-09-30T12:17:48Z</time>
      </trkpt>
      <trkpt lat="48.64824" lon="7.16779">
        <ele>371</ele>
        <time>2023-09-30T12:17:56Z</time>
      </trkpt>
      <trkpt lat="48.64824" lon="7.1675">
        <ele>369.1</ele>
        <time>2023-09-30T12:18:04Z</time>
      </trkpt>
      <trkpt lat="48.64827" lon="7.16724">
        <ele>367.1</ele>
        <time>2023-09-30T12:18:12Z</time>
      </trkpt>
      <trkpt lat="48.64832" lon="7.16707">
        <ele>365.6</ele>
        <time>2023-09-30T12:18:18Z</time>
      </trkpt>
      <trkpt lat="48.64846" lon="7.167">
        <ele>365.4</ele>
        <time>2023-09-30T12:18:29Z</time>
      </trkpt>
      <trkpt lat="48.64857" lon="7.16714">
        <ele>367</ele>
        <time>2023-09-30T12:18:46Z</time>
      </trkpt>
      <trkpt lat="48.64858" lon="7.1672">
        <ele>367.5</ele>
        <time>2023-09-30T12:18:50Z</time>
      </trkpt>
      <trkpt lat="48.64859" lon="7.16723">
        <ele>367.7</ele>
        <time>2023-09-30T12:18:52Z</time>
      </trkpt>
      <trkpt lat="48.64861" lon="7.16726">
        <ele>368</ele>
        <time>2023-09-30T12:18:54Z</time>
      </trkpt>
      <trkpt lat="48.64873" lon="7.16747">
        <ele>369.7</ele>
        <time>2023-09-30T12:19:07Z</time>
      </trkpt>
      <trkpt lat="48.64874" lon="7.16751">
        <ele>369.9</ele>
        <time>2023-09-30T12:19:09Z</time>
      </trkpt>
      <trkpt lat="48.64871" lon="7.16779">
        <ele>371.7</ele>
        <time>2023-09-30T12:19:22Z</time>
      </trkpt>
      <trkpt lat="48.64867" lon="7.1681">
        <ele>373.7</ele>
        <time>2023-09-30T12:19:30Z</time>
      </trkpt>
      <trkpt lat="48.64861" lon="7.16835">
        <ele>375.8</ele>
        <time>2023-09-30T12:19:38Z</time>
      </trkpt>
      <trkpt lat="48.64858" lon="7.16837">
        <ele>376.2</ele>
        <time>2023-09-30T12:19:40Z</time>
      </trkpt>
      <trkpt lat="48.64846" lon="7.16812">
        <ele>373.7</ele>
        <time>2023-09-30T12:19:49Z</time>
      </trkpt>
      <trkpt lat="48.64836" lon="7.16784">
        <ele>371.4</ele>
        <time>2023-09-30T12:19:55Z</time>
      </trkpt>
      <trkpt lat="48.64833" lon="7.16753">
        <ele>369.3</ele>
        <time>2023-09-30T12:20:02Z</time>
      </trkpt>
      <trkpt lat="48.64832" lon="7.16744">
        <ele>368.7</ele>
        <time>2023-09-30T12:20:04Z</time>
      </trkpt>
      <trkpt lat="48.64829" lon="7.16738">
        <ele>368.1</ele>
        <time>2023-09-30T12:21:31Z</time>
      </trkpt>
      <trkpt lat="48.64829" lon="7.1673">
        <ele>367.5</ele>
        <time>2023-09-30T12:21:35Z</time>
      </trkpt>
      <trkpt lat="48.64828" lon="7.16735">
        <ele>367.9</ele>
        <time>2023-09-30T12:21:41Z</time>
      </trkpt>
      <trkpt lat="48.6483" lon="7.16765">
        <ele>369.9</ele>
        <time>2023-09-30T12:21:52Z</time>
      </trkpt>
      <trkpt lat="48.64837" lon="7.16792">
        <ele>371.7</ele>
        <time>2023-09-30T12:22:00Z</time>
      </trkpt>
      <trkpt lat="48.64846" lon="7.16817">
        <ele>373.7</ele>
        <time>2023-09-30T12:22:08Z</time>
      </trkpt>
      <trkpt lat="48.64849" lon="7.1683">
        <ele>374.9</ele>
        <time>2023-09-30T12:22:13Z</time>
      </trkpt>
      <trkpt lat="48.64854" lon="7.16829">
        <ele>375.4</ele>
        <time>2023-09-30T12:22:15Z</time>
      </trkpt>
      <trkpt lat="48.64866" lon="7.16805">
        <ele>373.6</ele>
        <time>2023-09-30T12:22:24Z</time>
      </trkpt>
      <trkpt lat="48.64872" lon="7.16776">
        <ele>372.7</ele>
        <time>2023-09-30T12:22:33Z</time>
      </trkpt>
      <trkpt lat="48.64871" lon="7.16746">
        <ele>371.9</ele>
        <time>2023-09-30T12:22:42Z</time>
      </trkpt>
      <trkpt lat="48.64862" lon="7.16722">
        <ele>371.2</ele>
        <time>2023-09-30T12:22:50Z</time>
      </trkpt>
      <trkpt lat="48.64846" lon="7.16709">
        <ele>370.5</ele>
        <time>2023-09-30T12:22:58Z</time>
      </trkpt>
      <trkpt lat="48.64832" lon="7.16709">
        <ele>370</ele>
        <time>2023-09-30T12:23:04Z</time>
      </trkpt>
      <trkpt lat="48.64833" lon="7.16738">
        <ele>369.3</ele>
        <time>2023-09-30T12:23:15Z</time>
      </trkpt>
      <trkpt lat="48.64838" lon="7.16762">
        <ele>368.7</ele>
        <time>2023-09-30T12:23:25Z</time>
      </trkpt>
      <trkpt lat="48.64837" lon="7.16733">
        <ele>368</ele>
        <time>2023-09-30T12:23:37Z</time>
      </trkpt>
      <trkpt lat="48.64831" lon="7.16707">
        <ele>365.6</ele>
        <time>2023-09-30T12:23:44Z</time>
      </trkpt>
      <trkpt lat="48.6483" lon="7.16705">
        <ele>365.8</ele>
        <time>2023-09-30T12:23:45Z</time>
      </trkpt>
      <trkpt lat="48.64825" lon="7.16727">
        <ele>367.6</ele>
        <time>2023-09-30T12:23:55Z</time>
      </trkpt>
      <trkpt lat="48.64824" lon="7.16755">
        <ele>369.4</ele>
        <time>2023-09-30T12:24:08Z</time>
      </trkpt>
      <trkpt lat="48.6483" lon="7.16783">
        <ele>371.2</ele>
        <time>2023-09-30T12:24:20Z</time>
      </trkpt>
      <trkpt lat="48.64837" lon="7.16812">
        <ele>373.2</ele>
        <time>2023-09-30T12:24:28Z</time>
      </trkpt>
      <trkpt lat="48.64839" lon="7.16841">
        <ele>375.4</ele>
        <time>2023-09-30T12:24:34Z</time>
      </trkpt>
      <trkpt lat="48.64843" lon="7.16867">
        <ele>377.5</ele>
        <time>2023-09-30T12:24:46Z</time>
      </trkpt>
      <trkpt lat="48.6484" lon="7.16882">
        <ele>378.5</ele>
        <time>2023-09-30T12:24:50Z</time>
      </trkpt>
      <trkpt lat="48.64828" lon="7.16905">
        <ele>380.6</ele>
        <time>2023-09-30T12:24:58Z</time>
      </trkpt>
      <trkpt lat="48.64824" lon="7.16908">
        <ele>381</ele>
        <time>2023-09-30T12:25:00Z</time>
      </trkpt>
      <trkpt lat="48.64816" lon="7.16916">
        <ele>381.5</ele>
        <time>2023-09-30T12:25:08Z</time>
      </trkpt>
      <trkpt lat="48.64832" lon="7.169">
        <ele>379.4</ele>
        <time>2023-09-30T12:25:16Z</time>
      </trkpt>
      <trkpt lat="48.6484" lon="7.16873">
        <ele>377.4</ele>
        <time>2023-09-30T12:25:24Z</time>
      </trkpt>
      <trkpt lat="48.64836" lon="7.16842">
        <ele>374.9</ele>
        <time>2023-09-30T12:25:30Z</time>
      </trkpt>
      <trkpt lat="48.6483" lon="7.16816">
        <ele>372.8</ele>
        <time>2023-09-30T12:25:34Z</time>
      </trkpt>
      <trkpt lat="48.64826" lon="7.16785">
        <ele>370.8</ele>
        <time>2023-09-30T12:25:39Z</time>
      </trkpt>
      <trkpt lat="48.64826" lon="7.16754">
        <ele>368.9</ele>
        <time>2023-09-30T12:25:44Z</time>
      </trkpt>
      <trkpt lat="48.64828" lon="7.16726">
        <ele>367</ele>
        <time>2023-09-30T12:25:48Z</time>
      </trkpt>
      <trkpt lat="48.64829" lon="7.16698">
        <ele>364.8</ele>
        <time>2023-09-30T12:25:52Z</time>
      </trkpt>
      <trkpt lat="48.64829" lon="7.16685">
        <ele>363.9</ele>
        <time>2023-09-30T12:25:54Z</time>
      </trkpt>
      <trkpt lat="48.64829" lon="7.16672">
        <ele>364.6</ele>
        <time>2023-09-30T12:25:58Z</time>
      </trkpt>
      <trkpt lat="48.64825" lon="7.16697">
        <ele>366.2</ele>
        <time>2023-09-30T12:26:07Z</time>
      </trkpt>
      <trkpt lat="48.64825" lon="7.1672">
        <ele>367.6</ele>
        <time>2023-09-30T12:26:18Z</time>
      </trkpt>
      <trkpt lat="48.64827" lon="7.16716">
        <ele>367.8</ele>
        <time>2023-09-30T12:26:20Z</time>
      </trkpt>
      <trkpt lat="48.64831" lon="7.16706">
        <ele>368.5</ele>
        <time>2023-09-30T12:26:25Z</time>
      </trkpt>
      <trkpt lat="48.64832" lon="7.16708">
        <ele>368.6</ele>
        <time>2023-09-30T12:26:27Z</time>
      </trkpt>
      <trkpt lat="48.64834" lon="7.16737">
        <ele>370</ele>
        <time>2023-09-30T12:26:38Z</time>
      </trkpt>
      <trkpt lat="48.64837" lon="7.16766">
        <ele>371.4</ele>
        <time>2023-09-30T12:26:47Z</time>
      </trkpt>
      <trkpt lat="48.64841" lon="7.16793">
        <ele>372.8</ele>
        <time>2023-09-30T12:26:55Z</time>
      </trkpt>
      <trkpt lat="48.64847" lon="7.16821">
        <ele>374.6</ele>
        <time>2023-09-30T12:27:07Z</time>
      </trkpt>
      <trkpt lat="48.64851" lon="7.16825">
        <ele>375</ele>
        <time>2023-09-30T12:27:11Z</time>
      </trkpt>
      <trkpt lat="48.64845" lon="7.16798">
        <ele>372.5</ele>
        <time>2023-09-30T12:27:24Z</time>
      </trkpt>
      <trkpt lat="48.6484" lon="7.16769">
        <ele>370.5</ele>
        <time>2023-09-30T12:27:34Z</time>
      </trkpt>
      <trkpt lat="48.64835" lon="7.16742">
        <ele>368.7</ele>
        <time>2023-09-30T12:27:41Z</time>
      </trkpt>
      <trkpt lat="48.64832" lon="7.16715">
        <ele>366.6</ele>
        <time>2023-09-30T12:27:47Z</time>
      </trkpt>
      <trkpt lat="48.6483" lon="7.16699">
        <ele>365.2</ele>
        <time>2023-09-30T12:27:52Z</time>
      </trkpt>
      <trkpt lat="48.64827" lon="7.167">
        <ele>364.9</ele>
        <time>2023-09-30T12:27:55Z</time>
      </trkpt>
      <trkpt lat="48.64825" lon="7.16692">
        <ele>364.3</ele>
        <time>2023-09-30T12:28:49Z</time>
      </trkpt>
      <trkpt lat="48.64833" lon="7.16662">
        <ele>361.8</ele>
        <time>2023-09-30T12:28:57Z</time>
      </trkpt>
      <trkpt lat="48.64835" lon="7.16646">
        <ele>360.6</ele>
        <time>2023-09-30T12:29:01Z</time>
      </trkpt>
      <trkpt lat="48.64835" lon="7.16651">
        <ele>361</ele>
        <time>2023-09-30T12:29:04Z</time>
      </trkpt>
      <trkpt lat="48.64829" lon="7.16679">
        <ele>363.2</ele>
        <time>2023-09-30T12:29:12Z</time>
      </trkpt>
      <trkpt lat="48.64826" lon="7.16707">
        <ele>364.7</ele>
        <time>2023-09-30T12:29:19Z</time>
      </trkpt>
      <trkpt lat="48.64825" lon="7.16735">
        <ele>365.9</ele>
        <time>2023-09-30T12:29:24Z</time>
      </trkpt>
      <trkpt lat="48.64823" lon="7.16764">
        <ele>366.7</ele>
        <time>2023-09-30T12:29:30Z</time>
      </trkpt>
      <trkpt lat="48.64823" lon="7.16765">
        <ele>366.7</ele>
        <time>2023-09-30T12:29:31Z</time>
      </trkpt>
      <trkpt lat="48.64827" lon="7.16734">
        <ele>366</ele>
        <time>2023-09-30T12:29:37Z</time>
      </trkpt>
      <trkpt lat="48.6483" lon="7.16701">
        <ele>364.8</ele>
        <time>2023-09-30T12:29:42Z</time>
      </trkpt>
      <trkpt lat="48.64844" lon="7.16678">
        <ele>363.5</ele>
        <time>2023-09-30T12:29:47Z</time>
      </trkpt>
      <trkpt lat="48.64852" lon="7.16678">
        <ele>363</ele>
        <time>2023-09-30T12:29:50Z</time>
      </trkpt>
      <trkpt lat="48.64852" lon="7.16672">
        <ele>362.7</ele>
        <time>2023-09-30T12:29:52Z</time>
      </trkpt>
      <trkpt lat="48.6485" lon="7.16667">
        <ele>362.3</ele>
        <time>2023-09-30T12:29:54Z</time>
      </trkpt>
      <trkpt lat="48.64832" lon="7.16679">
        <ele>363.8</ele>
        <time>2023-09-30T12:30:01Z</time>
      </trkpt>
      <trkpt lat="48.6483" lon="7.16692">
        <ele>364.4</ele>
        <time>2023-09-30T12:30:05Z</time>
      </trkpt>
      <trkpt lat="48.64827" lon="7.16693">
        <ele>364.6</ele>
        <time>2023-09-30T12:31:03Z</time>
      </trkpt>
      <trkpt lat="48.64826" lon="7.16694">
        <ele>364.6</ele>
        <time>2023-09-30T12:31:04Z</time>
      </trkpt>
      <trkpt lat="48.64827" lon="7.16724">
        <ele>365.7</ele>
        <time>2023-09-30T12:31:14Z</time>
      </trkpt>
      <trkpt lat="48.64824" lon="7.16754">
        <ele>366.6</ele>
        <time>2023-09-30T12:31:20Z</time>
      </trkpt>
      <trkpt lat="48.64823" lon="7.16784">
        <ele>367</ele>
        <time>2023-09-30T12:31:25Z</time>
      </trkpt>
      <trkpt lat="48.64805" lon="7.16788">
        <ele>368.8</ele>
        <time>2023-09-30T12:31:32Z</time>
      </trkpt>
      <trkpt lat="48.64794" lon="7.16768">
        <ele>370.4</ele>
        <time>2023-09-30T12:31:40Z</time>
      </trkpt>
      <trkpt lat="48.6478" lon="7.16747">
        <ele>370.4</ele>
        <time>2023-09-30T12:31:49Z</time>
      </trkpt>
      <trkpt lat="48.64768" lon="7.16738">
        <ele>370.3</ele>
        <time>2023-09-30T12:31:57Z</time>
      </trkpt>
      <trkpt lat="48.64761" lon="7.16734">
        <ele>370.3</ele>
        <time>2023-09-30T12:32:02Z</time>
      </trkpt>
      <trkpt lat="48.64748" lon="7.16714">
        <ele>370.2</ele>
        <time>2023-09-30T12:32:10Z</time>
      </trkpt>
      <trkpt lat="48.64744" lon="7.16712">
        <ele>370.2</ele>
        <time>2023-09-30T12:32:11Z</time>
      </trkpt>
      <trkpt lat="48.64736" lon="7.16708">
        <ele>370.1</ele>
        <time>2023-09-30T12:32:20Z</time>
      </trkpt>
      <trkpt lat="48.64728" lon="7.16687">
        <ele>370.1</ele>
        <time>2023-09-30T12:32:33Z</time>
      </trkpt>
      <trkpt lat="48.6471" lon="7.16678">
        <ele>370</ele>
        <time>2023-09-30T12:32:41Z</time>
      </trkpt>
      <trkpt lat="48.64692" lon="7.16682">
        <ele>370.1</ele>
        <time>2023-09-30T12:32:46Z</time>
      </trkpt>
      <trkpt lat="48.64675" lon="7.16689">
        <ele>370.3</ele>
        <time>2023-09-30T12:32:51Z</time>
      </trkpt>
      <trkpt lat="48.64655" lon="7.167">
        <ele>370.4</ele>
        <time>2023-09-30T12:32:57Z</time>
      </trkpt>
      <trkpt lat="48.64638" lon="7.16711">
        <ele>370.6</ele>
        <time>2023-09-30T12:33:04Z</time>
      </trkpt>
      <trkpt lat="48.64625" lon="7.1673">
        <ele>370.7</ele>
        <time>2023-09-30T12:33:10Z</time>
      </trkpt>
      <trkpt lat="48.6461" lon="7.16746">
        <ele>370.7</ele>
        <time>2023-09-30T12:33:16Z</time>
      </trkpt>
      <trkpt lat="48.64592" lon="7.1676">
        <ele>370.7</ele>
        <time>2023-09-30T12:33:23Z</time>
      </trkpt>
      <trkpt lat="48.64578" lon="7.16778">
        <ele>370.8</ele>
        <time>2023-09-30T12:33:27Z</time>
      </trkpt>
      <trkpt lat="48.64562" lon="7.16796">
        <ele>370.8</ele>
        <time>2023-09-30T12:33:33Z</time>
      </trkpt>
      <trkpt lat="48.64548" lon="7.16817">
        <ele>370.9</ele>
        <time>2023-09-30T12:33:38Z</time>
      </trkpt>
      <trkpt lat="48.64532" lon="7.16831">
        <ele>371.1</ele>
        <time>2023-09-30T12:33:43Z</time>
      </trkpt>
      <trkpt lat="48.64524" lon="7.16835">
        <ele>371.2</ele>
        <time>2023-09-30T12:33:50Z</time>
      </trkpt>
      <trkpt lat="48.64522" lon="7.16837">
        <ele>371.2</ele>
        <time>2023-09-30T12:33:52Z</time>
      </trkpt>
      <trkpt lat="48.64515" lon="7.16839">
        <ele>371.5</ele>
        <time>2023-09-30T12:33:56Z</time>
      </trkpt>
      <trkpt lat="48.64496" lon="7.16844">
        <ele>372.1</ele>
        <time>2023-09-30T12:34:08Z</time>
      </trkpt>
      <trkpt lat="48.64487" lon="7.16832">
        <ele>372.5</ele>
        <time>2023-09-30T12:34:15Z</time>
      </trkpt>
      <trkpt lat="48.64488" lon="7.16836">
        <ele>372.6</ele>
        <time>2023-09-30T12:34:17Z</time>
      </trkpt>
      <trkpt lat="48.64491" lon="7.16851">
        <ele>372.8</ele>
        <time>2023-09-30T12:34:24Z</time>
      </trkpt>
      <trkpt lat="48.64503" lon="7.16844">
        <ele>372.3</ele>
        <time>2023-09-30T12:34:31Z</time>
      </trkpt>
      <trkpt lat="48.64522" lon="7.16856">
        <ele>371.5</ele>
        <time>2023-09-30T12:34:40Z</time>
      </trkpt>
      <trkpt lat="48.64539" lon="7.16866">
        <ele>371.2</ele>
        <time>2023-09-30T12:34:54Z</time>
      </trkpt>
      <trkpt lat="48.64539" lon="7.16867">
        <ele>371.2</ele>
        <time>2023-09-30T12:34:55Z</time>
      </trkpt>
      <trkpt lat="48.64541" lon="7.16871">
        <ele>371.2</ele>
        <time>2023-09-30T12:34:59Z</time>
      </trkpt>
      <trkpt lat="48.64543" lon="7.16873">
        <ele>371.1</ele>
        <time>2023-09-30T12:35:02Z</time>
      </trkpt>
      <trkpt lat="48.64544" lon="7.16873">
        <ele>371.1</ele>
        <time>2023-09-30T12:35:04Z</time>
      </trkpt>
      <trkpt lat="48.64545" lon="7.16873">
        <ele>371.1</ele>
        <time>2023-09-30T12:35:06Z</time>
      </trkpt>
      <trkpt lat="48.64548" lon="7.16868">
        <ele>371.1</ele>
        <time>2023-09-30T12:35:13Z</time>
      </trkpt>
      <trkpt lat="48.64565" lon="7.16857">
        <ele>370.9</ele>
        <time>2023-09-30T12:35:22Z</time>
      </trkpt>
      <trkpt lat="48.6457" lon="7.16852">
        <ele>370.8</ele>
        <time>2023-09-30T12:35:26Z</time>
      </trkpt>
      <trkpt lat="48.6457" lon="7.16848">
        <ele>370.8</ele>
        <time>2023-09-30T12:35:29Z</time>
      </trkpt>
      <trkpt lat="48.64573" lon="7.16855">
        <ele>370.9</ele>
        <time>2023-09-30T12:35:32Z</time>
      </trkpt>
      <trkpt lat="48.64562" lon="7.1688">
        <ele>371</ele>
        <time>2023-09-30T12:35:42Z</time>
      </trkpt>
      <trkpt lat="48.64546" lon="7.16896">
        <ele>371.3</ele>
        <time>2023-09-30T12:35:49Z</time>
      </trkpt>
      <trkpt lat="48.64533" lon="7.1692">
        <ele>372.4</ele>
        <time>2023-09-30T12:35:59Z</time>
      </trkpt>
      <trkpt lat="48.64518" lon="7.16937">
        <ele>373.6</ele>
        <time>2023-09-30T12:36:06Z</time>
      </trkpt>
      <trkpt lat="48.64517" lon="7.16939">
        <ele>373.7</ele>
        <time>2023-09-30T12:36:07Z</time>
      </trkpt>
      <trkpt lat="48.6451" lon="7.16953">
        <ele>374.5</ele>
        <time>2023-09-30T12:36:12Z</time>
      </trkpt>
      <trkpt lat="48.64493" lon="7.16968">
        <ele>376</ele>
        <time>2023-09-30T12:36:18Z</time>
      </trkpt>
      <trkpt lat="48.6448" lon="7.16987">
        <ele>377.6</ele>
        <time>2023-09-30T12:36:25Z</time>
      </trkpt>
      <trkpt lat="48.64466" lon="7.17004">
        <ele>379.2</ele>
        <time>2023-09-30T12:36:31Z</time>
      </trkpt>
      <trkpt lat="48.64451" lon="7.17024">
        <ele>381</ele>
        <time>2023-09-30T12:36:37Z</time>
      </trkpt>
      <trkpt lat="48.6444" lon="7.17046">
        <ele>382.7</ele>
        <time>2023-09-30T12:36:45Z</time>
      </trkpt>
      <trkpt lat="48.64428" lon="7.17067">
        <ele>384.4</ele>
        <time>2023-09-30T12:36:55Z</time>
      </trkpt>
      <trkpt lat="48.64419" lon="7.17081">
        <ele>385.6</ele>
        <time>2023-09-30T12:37:00Z</time>
      </trkpt>
      <trkpt lat="48.64417" lon="7.17085">
        <ele>385.8</ele>
        <time>2023-09-30T12:37:02Z</time>
      </trkpt>
      <trkpt lat="48.64405" lon="7.17095">
        <ele>387.1</ele>
        <time>2023-09-30T12:37:18Z</time>
      </trkpt>
      <trkpt lat="48.64404" lon="7.17096">
        <ele>387.3</ele>
        <time>2023-09-30T12:37:20Z</time>
      </trkpt>
      <trkpt lat="48.64403" lon="7.17099">
        <ele>387.5</ele>
        <time>2023-09-30T12:37:22Z</time>
      </trkpt>
      <trkpt lat="48.64401" lon="7.17101">
        <ele>387.8</ele>
        <time>2023-09-30T12:37:24Z</time>
      </trkpt>
      <trkpt lat="48.64398" lon="7.17105">
        <ele>388.2</ele>
        <time>2023-09-30T12:37:28Z</time>
      </trkpt>
      <trkpt lat="48.64394" lon="7.17105">
        <ele>388.7</ele>
        <time>2023-09-30T12:37:32Z</time>
      </trkpt>
      <trkpt lat="48.64391" lon="7.17104">
        <ele>389</ele>
        <time>2023-09-30T12:37:36Z</time>
      </trkpt>
      <trkpt lat="48.6439" lon="7.17104">
        <ele>389.1</ele>
        <time>2023-09-30T12:37:38Z</time>
      </trkpt>
      <trkpt lat="48.64387" lon="7.17106">
        <ele>389.4</ele>
        <time>2023-09-30T12:37:42Z</time>
      </trkpt>
      <trkpt lat="48.64385" lon="7.17108">
        <ele>389.7</ele>
        <time>2023-09-30T12:37:45Z</time>
      </trkpt>
      <trkpt lat="48.64369" lon="7.17124">
        <ele>391.5</ele>
        <time>2023-09-30T12:37:54Z</time>
      </trkpt>
      <trkpt lat="48.64353" lon="7.17142">
        <ele>393.3</ele>
        <time>2023-09-30T12:38:00Z</time>
      </trkpt>
      <trkpt lat="48.64341" lon="7.17162">
        <ele>394.9</ele>
        <time>2023-09-30T12:38:07Z</time>
      </trkpt>
      <trkpt lat="48.64331" lon="7.17185">
        <ele>396.5</ele>
        <time>2023-09-30T12:38:13Z</time>
      </trkpt>
      <trkpt lat="48.64319" lon="7.1721">
        <ele>398.4</ele>
        <time>2023-09-30T12:38:20Z</time>
      </trkpt>
      <trkpt lat="48.64307" lon="7.17232">
        <ele>400.3</ele>
        <time>2023-09-30T12:38:27Z</time>
      </trkpt>
      <trkpt lat="48.64292" lon="7.17251">
        <ele>402</ele>
        <time>2023-09-30T12:38:33Z</time>
      </trkpt>
      <trkpt lat="48.64279" lon="7.1727">
        <ele>403.7</ele>
        <time>2023-09-30T12:38:40Z</time>
      </trkpt>
      <trkpt lat="48.64265" lon="7.1729">
        <ele>405.6</ele>
        <time>2023-09-30T12:38:50Z</time>
      </trkpt>
      <trkpt lat="48.64265" lon="7.17291">
        <ele>405.6</ele>
        <time>2023-09-30T12:38:51Z</time>
      </trkpt>
      <trkpt lat="48.64264" lon="7.17293">
        <ele>405.8</ele>
        <time>2023-09-30T12:38:53Z</time>
      </trkpt>
      <trkpt lat="48.64262" lon="7.173">
        <ele>406.2</ele>
        <time>2023-09-30T12:38:57Z</time>
      </trkpt>
      <trkpt lat="48.64251" lon="7.17325">
        <ele>407.8</ele>
        <time>2023-09-30T12:39:09Z</time>
      </trkpt>
      <trkpt lat="48.64244" lon="7.1735">
        <ele>412.6</ele>
        <time>2023-09-30T12:39:21Z</time>
      </trkpt>
      <trkpt lat="48.64243" lon="7.17354">
        <ele>413.7</ele>
        <time>2023-09-30T12:39:25Z</time>
      </trkpt>
      <trkpt lat="48.64243" lon="7.17357">
        <ele>414.8</ele>
        <time>2023-09-30T12:39:28Z</time>
      </trkpt>
      <trkpt lat="48.64243" lon="7.17359">
        <ele>414.7</ele>
        <time>2023-09-30T12:39:30Z</time>
      </trkpt>
      <trkpt lat="48.64244" lon="7.17361">
        <ele>416.5</ele>
        <time>2023-09-30T12:39:33Z</time>
      </trkpt>
      <trkpt lat="48.64245" lon="7.1736">
        <ele>416.5</ele>
        <time>2023-09-30T12:39:35Z</time>
      </trkpt>
      <trkpt lat="48.64246" lon="7.17388">
        <ele>423.6</ele>
        <time>2023-09-30T12:39:52Z</time>
      </trkpt>
      <trkpt lat="48.64247" lon="7.17395">
        <ele>427.1</ele>
        <time>2023-09-30T12:39:58Z</time>
      </trkpt>
      <trkpt lat="48.64251" lon="7.17399">
        <ele>429.1</ele>
        <time>2023-09-30T12:40:03Z</time>
      </trkpt>
      <trkpt lat="48.64265" lon="7.17397">
        <ele>430.8</ele>
        <time>2023-09-30T12:40:15Z</time>
      </trkpt>
      <trkpt lat="48.64268" lon="7.17397">
        <ele>431.4</ele>
        <time>2023-09-30T12:40:19Z</time>
      </trkpt>
      <trkpt lat="48.6427" lon="7.17396">
        <ele>432</ele>
        <time>2023-09-30T12:40:21Z</time>
      </trkpt>
      <trkpt lat="48.64271" lon="7.17398">
        <ele>431.9</ele>
        <time>2023-09-30T12:40:24Z</time>
      </trkpt>
      <trkpt lat="48.64277" lon="7.17401">
        <ele>434.7</ele>
        <time>2023-09-30T12:40:30Z</time>
      </trkpt>
      <trkpt lat="48.6428" lon="7.17403">
        <ele>436.7</ele>
        <time>2023-09-30T12:40:34Z</time>
      </trkpt>
      <trkpt lat="48.6428" lon="7.17406">
        <ele>436.6</ele>
        <time>2023-09-30T12:40:36Z</time>
      </trkpt>
      <trkpt lat="48.6428" lon="7.17411">
        <ele>438.6</ele>
        <time>2023-09-30T12:40:39Z</time>
      </trkpt>
      <trkpt lat="48.6428" lon="7.17416">
        <ele>441</ele>
        <time>2023-09-30T12:40:41Z</time>
      </trkpt>
      <trkpt lat="48.64281" lon="7.17425">
        <ele>444.1</ele>
        <time>2023-09-30T12:40:47Z</time>
      </trkpt>
      <trkpt lat="48.64283" lon="7.17428">
        <ele>444</ele>
        <time>2023-09-30T12:40:51Z</time>
      </trkpt>
      <trkpt lat="48.64279" lon="7.17441">
        <ele>447</ele>
        <time>2023-09-30T12:41:03Z</time>
      </trkpt>
      <trkpt lat="48.64283" lon="7.17442">
        <ele>447.6</ele>
        <time>2023-09-30T12:41:05Z</time>
      </trkpt>
      <trkpt lat="48.64288" lon="7.1744">
        <ele>448.5</ele>
        <time>2023-09-30T12:41:13Z</time>
      </trkpt>
      <trkpt lat="48.64288" lon="7.1744">
        <ele>448.4</ele>
        <time>2023-09-30T12:41:15Z</time>
      </trkpt>
      <trkpt lat="48.64283" lon="7.17442">
        <ele>448.6</ele>
        <time>2023-09-30T12:41:22Z</time>
      </trkpt>
      <trkpt lat="48.64282" lon="7.17443">
        <ele>448.5</ele>
        <time>2023-09-30T12:41:24Z</time>
      </trkpt>
      <trkpt lat="48.64276" lon="7.17449">
        <ele>448.5</ele>
        <time>2023-09-30T12:41:32Z</time>
      </trkpt>
      <trkpt lat="48.64271" lon="7.17447">
        <ele>447.3</ele>
        <time>2023-09-30T12:41:37Z</time>
      </trkpt>
      <trkpt lat="48.64271" lon="7.17462">
        <ele>450.6</ele>
        <time>2023-09-30T12:41:43Z</time>
      </trkpt>
      <trkpt lat="48.64269" lon="7.17463">
        <ele>450</ele>
        <time>2023-09-30T12:41:45Z</time>
      </trkpt>
      <trkpt lat="48.64252" lon="7.17459">
        <ele>446.5</ele>
        <time>2023-09-30T12:41:53Z</time>
      </trkpt>
      <trkpt lat="48.64234" lon="7.17465">
        <ele>443.5</ele>
        <time>2023-09-30T12:42:00Z</time>
      </trkpt>
      <trkpt lat="48.64229" lon="7.17465">
        <ele>442.1</ele>
        <time>2023-09-30T12:42:04Z</time>
      </trkpt>
      <trkpt lat="48.64211" lon="7.1748">
        <ele>442.9</ele>
        <time>2023-09-30T12:42:11Z</time>
      </trkpt>
      <trkpt lat="48.64194" lon="7.17494">
        <ele>442.3</ele>
        <time>2023-09-30T12:42:19Z</time>
      </trkpt>
      <trkpt lat="48.64177" lon="7.17513">
        <ele>441.6</ele>
        <time>2023-09-30T12:42:26Z</time>
      </trkpt>
      <trkpt lat="48.64162" lon="7.17532">
        <ele>442.7</ele>
        <time>2023-09-30T12:42:31Z</time>
      </trkpt>
      <trkpt lat="48.64147" lon="7.17555">
        <ele>442.5</ele>
        <time>2023-09-30T12:42:36Z</time>
      </trkpt>
      <trkpt lat="48.6414" lon="7.17581">
        <ele>445.1</ele>
        <time>2023-09-30T12:42:41Z</time>
      </trkpt>
      <trkpt lat="48.64133" lon="7.1761">
        <ele>448.9</ele>
        <time>2023-09-30T12:42:46Z</time>
      </trkpt>
      <trkpt lat="48.64119" lon="7.17623">
        <ele>446.9</ele>
        <time>2023-09-30T12:42:52Z</time>
      </trkpt>
      <trkpt lat="48.641" lon="7.17626">
        <ele>441.9</ele>
        <time>2023-09-30T12:42:57Z</time>
      </trkpt>
      <trkpt lat="48.64082" lon="7.17628">
        <ele>438.1</ele>
        <time>2023-09-30T12:43:03Z</time>
      </trkpt>
      <trkpt lat="48.64063" lon="7.17638">
        <ele>434.6</ele>
        <time>2023-09-30T12:43:09Z</time>
      </trkpt>
      <trkpt lat="48.64042" lon="7.17644">
        <ele>429.8</ele>
        <time>2023-09-30T12:43:15Z</time>
      </trkpt>
      <trkpt lat="48.64022" lon="7.17638">
        <ele>422.3</ele>
        <time>2023-09-30T12:43:20Z</time>
      </trkpt>
      <trkpt lat="48.64001" lon="7.17639">
        <ele>417.4</ele>
        <time>2023-09-30T12:43:26Z</time>
      </trkpt>
      <trkpt lat="48.63982" lon="7.17642">
        <ele>413.7</ele>
        <time>2023-09-30T12:43:32Z</time>
      </trkpt>
      <trkpt lat="48.63969" lon="7.17658">
        <ele>415.6</ele>
        <time>2023-09-30T12:43:40Z</time>
      </trkpt>
      <trkpt lat="48.63953" lon="7.17647">
        <ele>412.7</ele>
        <time>2023-09-30T12:43:50Z</time>
      </trkpt>
      <trkpt lat="48.6395" lon="7.17641">
        <ele>412</ele>
        <time>2023-09-30T12:43:56Z</time>
      </trkpt>
      <trkpt lat="48.63958" lon="7.17634">
        <ele>410.5</ele>
        <time>2023-09-30T12:44:08Z</time>
      </trkpt>
      <trkpt lat="48.63962" lon="7.17634">
        <ele>410.5</ele>
        <time>2023-09-30T12:44:13Z</time>
      </trkpt>
      <trkpt lat="48.63963" lon="7.17637">
        <ele>411.2</ele>
        <time>2023-09-30T12:44:15Z</time>
      </trkpt>
      <trkpt lat="48.63966" lon="7.17643">
        <ele>412.7</ele>
        <time>2023-09-30T12:44:22Z</time>
      </trkpt>
      <trkpt lat="48.63969" lon="7.17642">
        <ele>412.1</ele>
        <time>2023-09-30T12:44:25Z</time>
      </trkpt>
      <trkpt lat="48.63973" lon="7.1764">
        <ele>412.3</ele>
        <time>2023-09-30T12:44:27Z</time>
      </trkpt>
      <trkpt lat="48.63992" lon="7.17634">
        <ele>413.5</ele>
        <time>2023-09-30T12:44:40Z</time>
      </trkpt>
      <trkpt lat="48.6401" lon="7.17631">
        <ele>417.4</ele>
        <time>2023-09-30T12:44:51Z</time>
      </trkpt>
      <trkpt lat="48.64029" lon="7.17633">
        <ele>423.5</ele>
        <time>2023-09-30T12:45:00Z</time>
      </trkpt>
      <trkpt lat="48.64047" lon="7.17627">
        <ele>427.3</ele>
        <time>2023-09-30T12:45:08Z</time>
      </trkpt>
      <trkpt lat="48.64065" lon="7.17615">
        <ele>429.5</ele>
        <time>2023-09-30T12:45:14Z</time>
      </trkpt>
      <trkpt lat="48.64086" lon="7.17607">
        <ele>433.1</ele>
        <time>2023-09-30T12:45:20Z</time>
      </trkpt>
      <trkpt lat="48.64105" lon="7.17603">
        <ele>437.6</ele>
        <time>2023-09-30T12:45:25Z</time>
      </trkpt>
      <trkpt lat="48.64124" lon="7.17599">
        <ele>441.6</ele>
        <time>2023-09-30T12:45:30Z</time>
      </trkpt>
      <trkpt lat="48.64137" lon="7.17597">
        <ele>445.6</ele>
        <time>2023-09-30T12:45:41Z</time>
      </trkpt>
      <trkpt lat="48.64148" lon="7.17588">
        <ele>447.8</ele>
        <time>2023-09-30T12:45:59Z</time>
      </trkpt>
      <trkpt lat="48.64148" lon="7.17584">
        <ele>447</ele>
        <time>2023-09-30T12:46:03Z</time>
      </trkpt>
      <trkpt lat="48.6415" lon="7.17583">
        <ele>446.2</ele>
        <time>2023-09-30T12:46:06Z</time>
      </trkpt>
      <trkpt lat="48.64152" lon="7.17578">
        <ele>446.2</ele>
        <time>2023-09-30T12:46:10Z</time>
      </trkpt>
      <trkpt lat="48.64162" lon="7.1757">
        <ele>447.7</ele>
        <time>2023-09-30T12:46:25Z</time>
      </trkpt>
      <trkpt lat="48.64165" lon="7.17571">
        <ele>449.5</ele>
        <time>2023-09-30T12:46:29Z</time>
      </trkpt>
      <trkpt lat="48.64166" lon="7.17573">
        <ele>449.5</ele>
        <time>2023-09-30T12:46:30Z</time>
      </trkpt>
      <trkpt lat="48.64168" lon="7.17578">
        <ele>451.3</ele>
        <time>2023-09-30T12:46:33Z</time>
      </trkpt>
      <trkpt lat="48.64169" lon="7.1758">
        <ele>452.1</ele>
        <time>2023-09-30T12:46:35Z</time>
      </trkpt>
      <trkpt lat="48.6417" lon="7.1758">
        <ele>452.1</ele>
        <time>2023-09-30T12:46:37Z</time>
      </trkpt>
      <trkpt lat="48.64177" lon="7.17583">
        <ele>454.7</ele>
        <time>2023-09-30T12:46:45Z</time>
      </trkpt>
      <trkpt lat="48.64179" lon="7.17582">
        <ele>455.6</ele>
        <time>2023-09-30T12:46:49Z</time>
      </trkpt>
      <trkpt lat="48.64181" lon="7.17587">
        <ele>456.4</ele>
        <time>2023-09-30T12:46:57Z</time>
      </trkpt>
      <trkpt lat="48.64183" lon="7.1759">
        <ele>458.2</ele>
        <time>2023-09-30T12:47:00Z</time>
      </trkpt>
      <trkpt lat="48.64202" lon="7.17588">
        <ele>464.5</ele>
        <time>2023-09-30T12:47:14Z</time>
      </trkpt>
      <trkpt lat="48.6422" lon="7.17598">
        <ele>470.2</ele>
        <time>2023-09-30T12:47:28Z</time>
      </trkpt>
      <trkpt lat="48.6422" lon="7.17599">
        <ele>470.1</ele>
        <time>2023-09-30T12:47:29Z</time>
      </trkpt>
      <trkpt lat="48.64237" lon="7.1761">
        <ele>475</ele>
        <time>2023-09-30T12:47:40Z</time>
      </trkpt>
      <trkpt lat="48.6425" lon="7.17612">
        <ele>476.2</ele>
        <time>2023-09-30T12:47:46Z</time>
      </trkpt>
      <trkpt lat="48.64252" lon="7.17614">
        <ele>476.9</ele>
        <time>2023-09-30T12:47:48Z</time>
      </trkpt>
      <trkpt lat="48.64259" lon="7.17626">
        <ele>478.8</ele>
        <time>2023-09-30T12:47:57Z</time>
      </trkpt>
      <trkpt lat="48.64276" lon="7.17638">
        <ele>482.2</ele>
        <time>2023-09-30T12:48:08Z</time>
      </trkpt>
      <trkpt lat="48.64288" lon="7.1766">
        <ele>486.4</ele>
        <time>2023-09-30T12:48:19Z</time>
      </trkpt>
      <trkpt lat="48.64291" lon="7.17664">
        <ele>487.1</ele>
        <time>2023-09-30T12:48:22Z</time>
      </trkpt>
      <trkpt lat="48.64298" lon="7.17678">
        <ele>489.5</ele>
        <time>2023-09-30T12:48:31Z</time>
      </trkpt>
      <trkpt lat="48.64307" lon="7.17685">
        <ele>489.9</ele>
        <time>2023-09-30T12:48:37Z</time>
      </trkpt>
      <trkpt lat="48.64312" lon="7.17698">
        <ele>491.6</ele>
        <time>2023-09-30T12:48:43Z</time>
      </trkpt>
      <trkpt lat="48.64331" lon="7.177">
        <ele>491.8</ele>
        <time>2023-09-30T12:48:49Z</time>
      </trkpt>
      <trkpt lat="48.64352" lon="7.17703">
        <ele>492.1</ele>
        <time>2023-09-30T12:48:57Z</time>
      </trkpt>
      <trkpt lat="48.64371" lon="7.17707">
        <ele>493</ele>
        <time>2023-09-30T12:49:07Z</time>
      </trkpt>
      <trkpt lat="48.64389" lon="7.17714">
        <ele>493.4</ele>
        <time>2023-09-30T12:49:17Z</time>
      </trkpt>
      <trkpt lat="48.64397" lon="7.17722">
        <ele>493.8</ele>
        <time>2023-09-30T12:49:25Z</time>
      </trkpt>
      <trkpt lat="48.64399" lon="7.17716">
        <ele>492.7</ele>
        <time>2023-09-30T12:49:30Z</time>
      </trkpt>
      <trkpt lat="48.64414" lon="7.177">
        <ele>490.3</ele>
        <time>2023-09-30T12:49:37Z</time>
      </trkpt>
      <trkpt lat="48.64421" lon="7.17675">
        <ele>487.5</ele>
        <time>2023-09-30T12:49:43Z</time>
      </trkpt>
      <trkpt lat="48.64426" lon="7.17667">
        <ele>486.1</ele>
        <time>2023-09-30T12:49:45Z</time>
      </trkpt>
      <trkpt lat="48.64448" lon="7.1766">
        <ele>483.3</ele>
        <time>2023-09-30T12:49:50Z</time>
      </trkpt>
      <trkpt lat="48.64467" lon="7.17661">
        <ele>482.1</ele>
        <time>2023-09-30T12:49:54Z</time>
      </trkpt>
      <trkpt lat="48.64476" lon="7.17654">
        <ele>480.2</ele>
        <time>2023-09-30T12:49:57Z</time>
      </trkpt>
      <trkpt lat="48.64491" lon="7.17631">
        <ele>477.3</ele>
        <time>2023-09-30T12:50:02Z</time>
      </trkpt>
      <trkpt lat="48.64504" lon="7.17608">
        <ele>474.5</ele>
        <time>2023-09-30T12:50:07Z</time>
      </trkpt>
      <trkpt lat="48.64517" lon="7.17579">
        <ele>471.2</ele>
        <time>2023-09-30T12:50:12Z</time>
      </trkpt>
      <trkpt lat="48.64521" lon="7.17554">
        <ele>469.1</ele>
        <time>2023-09-30T12:50:17Z</time>
      </trkpt>
      <trkpt lat="48.64517" lon="7.17525">
        <ele>467.1</ele>
        <time>2023-09-30T12:50:22Z</time>
      </trkpt>
      <trkpt lat="48.6452" lon="7.17494">
        <ele>464</ele>
        <time>2023-09-30T12:50:28Z</time>
      </trkpt>
      <trkpt lat="48.6452" lon="7.17465">
        <ele>461.9</ele>
        <time>2023-09-30T12:50:37Z</time>
      </trkpt>
      <trkpt lat="48.64522" lon="7.17461">
        <ele>461.5</ele>
        <time>2023-09-30T12:50:40Z</time>
      </trkpt>
      <trkpt lat="48.64522" lon="7.17459">
        <ele>461.5</ele>
        <time>2023-09-30T12:50:42Z</time>
      </trkpt>
      <trkpt lat="48.64504" lon="7.17459">
        <ele>461.5</ele>
        <time>2023-09-30T12:50:54Z</time>
      </trkpt>
      <trkpt lat="48.64485" lon="7.17459">
        <ele>461.2</ele>
        <time>2023-09-30T12:51:02Z</time>
      </trkpt>
      <trkpt lat="48.64467" lon="7.17459">
        <ele>460.5</ele>
        <time>2023-09-30T12:51:09Z</time>
      </trkpt>
      <trkpt lat="48.64449" lon="7.17464">
        <ele>461.5</ele>
        <time>2023-09-30T12:51:16Z</time>
      </trkpt>
      <trkpt lat="48.64429" lon="7.17472">
        <ele>463</ele>
        <time>2023-09-30T12:51:24Z</time>
      </trkpt>
      <trkpt lat="48.6441" lon="7.17467">
        <ele>460.7</ele>
        <time>2023-09-30T12:51:30Z</time>
      </trkpt>
      <trkpt lat="48.64393" lon="7.17456">
        <ele>458.4</ele>
        <time>2023-09-30T12:51:35Z</time>
      </trkpt>
      <trkpt lat="48.64374" lon="7.17457">
        <ele>457.1</ele>
        <time>2023-09-30T12:51:43Z</time>
      </trkpt>
      <trkpt lat="48.64356" lon="7.17459">
        <ele>455.9</ele>
        <time>2023-09-30T12:51:49Z</time>
      </trkpt>
      <trkpt lat="48.64338" lon="7.17461">
        <ele>454.3</ele>
        <time>2023-09-30T12:51:56Z</time>
      </trkpt>
      <trkpt lat="48.6432" lon="7.17468">
        <ele>454</ele>
        <time>2023-09-30T12:52:02Z</time>
      </trkpt>
      <trkpt lat="48.64311" lon="7.17471">
        <ele>453.1</ele>
        <time>2023-09-30T12:52:06Z</time>
      </trkpt>
      <trkpt lat="48.64308" lon="7.17467">
        <ele>451.7</ele>
        <time>2023-09-30T12:52:08Z</time>
      </trkpt>
      <trkpt lat="48.64305" lon="7.17462">
        <ele>450.4</ele>
        <time>2023-09-30T12:52:10Z</time>
      </trkpt>
      <trkpt lat="48.64287" lon="7.17457">
        <ele>447</ele>
        <time>2023-09-30T12:52:19Z</time>
      </trkpt>
      <trkpt lat="48.64282" lon="7.17461">
        <ele>447.1</ele>
        <time>2023-09-30T12:52:27Z</time>
      </trkpt>
      <trkpt lat="48.6428" lon="7.17462">
        <ele>446.6</ele>
        <time>2023-09-30T12:52:31Z</time>
      </trkpt>
      <trkpt lat="48.64278" lon="7.17461">
        <ele>446.5</ele>
        <time>2023-09-30T12:52:33Z</time>
      </trkpt>
      <trkpt lat="48.64281" lon="7.17445">
        <ele>442.7</ele>
        <time>2023-09-30T12:52:41Z</time>
      </trkpt>
      <trkpt lat="48.64299" lon="7.17451">
        <ele>447.4</ele>
        <time>2023-09-30T12:52:53Z</time>
      </trkpt>
      <trkpt lat="48.64318" lon="7.17455">
        <ele>451</ele>
        <time>2023-09-30T12:53:03Z</time>
      </trkpt>
      <trkpt lat="48.6434" lon="7.1746">
        <ele>453.6</ele>
        <time>2023-09-30T12:53:10Z</time>
      </trkpt>
      <trkpt lat="48.64357" lon="7.17453">
        <ele>453.8</ele>
        <time>2023-09-30T12:53:16Z</time>
      </trkpt>
      <trkpt lat="48.64376" lon="7.17437">
        <ele>451.7</ele>
        <time>2023-09-30T12:53:22Z</time>
      </trkpt>
      <trkpt lat="48.64387" lon="7.17414">
        <ele>447.8</ele>
        <time>2023-09-30T12:53:28Z</time>
      </trkpt>
      <trkpt lat="48.64402" lon="7.17396">
        <ele>445.5</ele>
        <time>2023-09-30T12:53:35Z</time>
      </trkpt>
      <trkpt lat="48.64418" lon="7.17379">
        <ele>444.2</ele>
        <time>2023-09-30T12:53:42Z</time>
      </trkpt>
      <trkpt lat="48.64434" lon="7.17361">
        <ele>443.8</ele>
        <time>2023-09-30T12:53:48Z</time>
      </trkpt>
      <trkpt lat="48.64451" lon="7.17344">
        <ele>445.4</ele>
        <time>2023-09-30T12:53:53Z</time>
      </trkpt>
      <trkpt lat="48.64467" lon="7.17327">
        <ele>445.2</ele>
        <time>2023-09-30T12:53:58Z</time>
      </trkpt>
      <trkpt lat="48.64481" lon="7.17305">
        <ele>444.6</ele>
        <time>2023-09-30T12:54:04Z</time>
      </trkpt>
      <trkpt lat="48.64497" lon="7.17286">
        <ele>444.7</ele>
        <time>2023-09-30T12:54:11Z</time>
      </trkpt>
      <trkpt lat="48.64508" lon="7.17263">
        <ele>444.5</ele>
        <time>2023-09-30T12:54:18Z</time>
      </trkpt>
      <trkpt lat="48.64516" lon="7.17235">
        <ele>442.3</ele>
        <time>2023-09-30T12:54:25Z</time>
      </trkpt>
      <trkpt lat="48.6453" lon="7.17216">
        <ele>441.3</ele>
        <time>2023-09-30T12:54:33Z</time>
      </trkpt>
      <trkpt lat="48.6454" lon="7.1721">
        <ele>440.7</ele>
        <time>2023-09-30T12:54:40Z</time>
      </trkpt>
      <trkpt lat="48.64553" lon="7.17195">
        <ele>440</ele>
        <time>2023-09-30T12:54:52Z</time>
      </trkpt>
      <trkpt lat="48.64568" lon="7.1719">
        <ele>440</ele>
        <time>2023-09-30T12:55:01Z</time>
      </trkpt>
      <trkpt lat="48.64556" lon="7.17165">
        <ele>437.4</ele>
        <time>2023-09-30T12:55:13Z</time>
      </trkpt>
      <trkpt lat="48.64543" lon="7.17144">
        <ele>433.4</ele>
        <time>2023-09-30T12:55:19Z</time>
      </trkpt>
      <trkpt lat="48.64529" lon="7.17126">
        <ele>428.8</ele>
        <time>2023-09-30T12:55:28Z</time>
      </trkpt>
      <trkpt lat="48.64518" lon="7.17104">
        <ele>422.1</ele>
        <time>2023-09-30T12:55:36Z</time>
      </trkpt>
      <trkpt lat="48.64504" lon="7.17087">
        <ele>413.9</ele>
        <time>2023-09-30T12:55:43Z</time>
      </trkpt>
      <trkpt lat="48.64494" lon="7.17068">
        <ele>403.4</ele>
        <time>2023-09-30T12:55:57Z</time>
      </trkpt>
      <trkpt lat="48.6449" lon="7.17038">
        <ele>393.4</ele>
        <time>2023-09-30T12:56:06Z</time>
      </trkpt>
      <trkpt lat="48.64498" lon="7.17009">
        <ele>386.6</ele>
        <time>2023-09-30T12:56:12Z</time>
      </trkpt>
      <trkpt lat="48.64502" lon="7.16981">
        <ele>377.2</ele>
        <time>2023-09-30T12:56:17Z</time>
      </trkpt>
      <trkpt lat="48.64503" lon="7.16972">
        <ele>375.3</ele>
        <time>2023-09-30T12:56:21Z</time>
      </trkpt>
      <trkpt lat="48.64514" lon="7.1695">
        <ele>372.2</ele>
        <time>2023-09-30T12:56:29Z</time>
      </trkpt>
      <trkpt lat="48.64517" lon="7.16944">
        <ele>370.3</ele>
        <time>2023-09-30T12:56:32Z</time>
      </trkpt>
      <trkpt lat="48.64521" lon="7.16931">
        <ele>367.7</ele>
        <time>2023-09-30T12:56:39Z</time>
      </trkpt>
      <trkpt lat="48.64537" lon="7.16916">
        <ele>368.2</ele>
        <time>2023-09-30T12:56:48Z</time>
      </trkpt>
      <trkpt lat="48.64543" lon="7.16908">
        <ele>367.4</ele>
        <time>2023-09-30T12:56:51Z</time>
      </trkpt>
      <trkpt lat="48.64547" lon="7.169">
        <ele>366.8</ele>
        <time>2023-09-30T12:56:53Z</time>
      </trkpt>
      <trkpt lat="48.64553" lon="7.16891">
        <ele>366.3</ele>
        <time>2023-09-30T12:56:55Z</time>
      </trkpt>
      <trkpt lat="48.64559" lon="7.16885">
        <ele>366.8</ele>
        <time>2023-09-30T12:56:57Z</time>
      </trkpt>
      <trkpt lat="48.6457" lon="7.16867">
        <ele>365.4</ele>
        <time>2023-09-30T12:57:03Z</time>
      </trkpt>
      <trkpt lat="48.64571" lon="7.16862">
        <ele>363.2</ele>
        <time>2023-09-30T12:57:07Z</time>
      </trkpt>
      <trkpt lat="48.64573" lon="7.16862">
        <ele>363.7</ele>
        <time>2023-09-30T12:57:14Z</time>
      </trkpt>
      <trkpt lat="48.64579" lon="7.16862">
        <ele>365</ele>
        <time>2023-09-30T12:57:19Z</time>
      </trkpt>
      <trkpt lat="48.64597" lon="7.1686">
        <ele>369.6</ele>
        <time>2023-09-30T12:57:27Z</time>
      </trkpt>
      <trkpt lat="48.64617" lon="7.16859">
        <ele>375</ele>
        <time>2023-09-30T12:57:35Z</time>
      </trkpt>
      <trkpt lat="48.64634" lon="7.16847">
        <ele>374.5</ele>
        <time>2023-09-30T12:57:49Z</time>
      </trkpt>
      <trkpt lat="48.64637" lon="7.16846">
        <ele>375</ele>
        <time>2023-09-30T12:57:52Z</time>
      </trkpt>
      <trkpt lat="48.64642" lon="7.16848">
        <ele>376.2</ele>
        <time>2023-09-30T12:57:55Z</time>
      </trkpt>
      <trkpt lat="48.64662" lon="7.16845">
        <ele>378.1</ele>
        <time>2023-09-30T12:58:03Z</time>
      </trkpt>
      <trkpt lat="48.6468" lon="7.16842">
        <ele>379.5</ele>
        <time>2023-09-30T12:58:12Z</time>
      </trkpt>
      <trkpt lat="48.64698" lon="7.16838">
        <ele>378</ele>
        <time>2023-09-30T12:58:20Z</time>
      </trkpt>
      <trkpt lat="48.64713" lon="7.16856">
        <ele>380</ele>
        <time>2023-09-30T12:58:32Z</time>
      </trkpt>
      <trkpt lat="48.64728" lon="7.16872">
        <ele>380.6</ele>
        <time>2023-09-30T12:58:40Z</time>
      </trkpt>
      <trkpt lat="48.64742" lon="7.16896">
        <ele>380.2</ele>
        <time>2023-09-30T12:58:48Z</time>
      </trkpt>
      <trkpt lat="48.6476" lon="7.16904">
        <ele>375.8</ele>
        <time>2023-09-30T12:58:55Z</time>
      </trkpt>
      <trkpt lat="48.64764" lon="7.16907">
        <ele>374.8</ele>
        <time>2023-09-30T12:58:59Z</time>
      </trkpt>
      <trkpt lat="48.64765" lon="7.16912">
        <ele>375.2</ele>
        <time>2023-09-30T12:59:03Z</time>
      </trkpt>
      <trkpt lat="48.64764" lon="7.16917">
        <ele>375.5</ele>
        <time>2023-09-30T12:59:06Z</time>
      </trkpt>
      <trkpt lat="48.64769" lon="7.16934">
        <ele>375.9</ele>
        <time>2023-09-30T12:59:14Z</time>
      </trkpt>
      <trkpt lat="48.64773" lon="7.16934">
        <ele>375.2</ele>
        <time>2023-09-30T12:59:18Z</time>
      </trkpt>
      <trkpt lat="48.64777" lon="7.16936">
        <ele>374.4</ele>
        <time>2023-09-30T12:59:21Z</time>
      </trkpt>
      <trkpt lat="48.64796" lon="7.16931">
        <ele>371.9</ele>
        <time>2023-09-30T12:59:26Z</time>
      </trkpt>
      <trkpt lat="48.64805" lon="7.16926">
        <ele>370.6</ele>
        <time>2023-09-30T12:59:28Z</time>
      </trkpt>
      <trkpt lat="48.64815" lon="7.16903">
        <ele>369.4</ele>
        <time>2023-09-30T12:59:33Z</time>
      </trkpt>
      <trkpt lat="48.64816" lon="7.16902">
        <ele>369.4</ele>
        <time>2023-09-30T12:59:35Z</time>
      </trkpt>
      <trkpt lat="48.64818" lon="7.16905">
        <ele>369.5</ele>
        <time>2023-09-30T12:59:37Z</time>
      </trkpt>
      <trkpt lat="48.64819" lon="7.16909">
        <ele>369.6</ele>
        <time>2023-09-30T12:59:40Z</time>
      </trkpt>
      <trkpt lat="48.64819" lon="7.16914">
        <ele>369.7</ele>
        <time>2023-09-30T12:59:42Z</time>
      </trkpt>
      <trkpt lat="48.64812" lon="7.16918">
        <ele>369.9</ele>
        <time>2023-09-30T12:59:50Z</time>
      </trkpt>
      <trkpt lat="48.64812" lon="7.16916">
        <ele>369.9</ele>
        <time>2023-09-30T12:59:53Z</time>
      </trkpt>
      <trkpt lat="48.64813" lon="7.16918">
        <ele>370</ele>
        <time>2023-09-30T12:59:54Z</time>
      </trkpt>
      <trkpt lat="48.64816" lon="7.1693">
        <ele>370.1</ele>
        <time>2023-09-30T13:06:09Z</time>
      </trkpt>
      <trkpt lat="48.64814" lon="7.16928">
        <ele>370.2</ele>
        <time>2023-09-30T13:06:10Z</time>
      </trkpt>
      <trkpt lat="48.64802" lon="7.16908">
        <ele>370.3</ele>
        <time>2023-09-30T13:06:19Z</time>
      </trkpt>
      <trkpt lat="48.64796" lon="7.16881">
        <ele>370.4</ele>
        <time>2023-09-30T13:06:29Z</time>
      </trkpt>
      <trkpt lat="48.6479" lon="7.16853">
        <ele>370.4</ele>
        <time>2023-09-30T13:06:38Z</time>
      </trkpt>
      <trkpt lat="48.64781" lon="7.16828">
        <ele>370.4</ele>
        <time>2023-09-30T13:06:46Z</time>
      </trkpt>
      <trkpt lat="48.64773" lon="7.16803">
        <ele>370.4</ele>
        <time>2023-09-30T13:06:55Z</time>
      </trkpt>
      <trkpt lat="48.64765" lon="7.16777">
        <ele>370.3</ele>
        <time>2023-09-30T13:07:05Z</time>
      </trkpt>
      <trkpt lat="48.64753" lon="7.16756">
        <ele>370.2</ele>
        <time>2023-09-30T13:07:14Z</time>
      </trkpt>
      <trkpt lat="48.64739" lon="7.16738">
        <ele>370.1</ele>
        <time>2023-09-30T13:07:24Z</time>
      </trkpt>
      <trkpt lat="48.64721" lon="7.16729">
        <ele>370</ele>
        <time>2023-09-30T13:07:34Z</time>
      </trkpt>
      <trkpt lat="48.64703" lon="7.16733">
        <ele>370</ele>
        <time>2023-09-30T13:07:45Z</time>
      </trkpt>
      <trkpt lat="48.64685" lon="7.16745">
        <ele>370.2</ele>
        <time>2023-09-30T13:07:58Z</time>
      </trkpt>
      <trkpt lat="48.64671" lon="7.16765">
        <ele>370.4</ele>
        <time>2023-09-30T13:08:09Z</time>
      </trkpt>
      <trkpt lat="48.64655" lon="7.16782">
        <ele>370.5</ele>
        <time>2023-09-30T13:08:21Z</time>
      </trkpt>
      <trkpt lat="48.6464" lon="7.16798">
        <ele>370.7</ele>
        <time>2023-09-30T13:08:29Z</time>
      </trkpt>
      <trkpt lat="48.64622" lon="7.16814">
        <ele>370.7</ele>
        <time>2023-09-30T13:08:38Z</time>
      </trkpt>
      <trkpt lat="48.64604" lon="7.16829">
        <ele>370.8</ele>
        <time>2023-09-30T13:08:45Z</time>
      </trkpt>
      <trkpt lat="48.64587" lon="7.16844">
        <ele>370.8</ele>
        <time>2023-09-30T13:08:53Z</time>
      </trkpt>
      <trkpt lat="48.64569" lon="7.16859">
        <ele>370.8</ele>
        <time>2023-09-30T13:09:01Z</time>
      </trkpt>
      <trkpt lat="48.64553" lon="7.16874">
        <ele>371.1</ele>
        <time>2023-09-30T13:09:10Z</time>
      </trkpt>
      <trkpt lat="48.64539" lon="7.16892">
        <ele>371.6</ele>
        <time>2023-09-30T13:09:19Z</time>
      </trkpt>
      <trkpt lat="48.64525" lon="7.16911">
        <ele>372.6</ele>
        <time>2023-09-30T13:09:29Z</time>
      </trkpt>
      <trkpt lat="48.64507" lon="7.16924">
        <ele>373.9</ele>
        <time>2023-09-30T13:09:38Z</time>
      </trkpt>
      <trkpt lat="48.64492" lon="7.16939">
        <ele>375.2</ele>
        <time>2023-09-30T13:09:46Z</time>
      </trkpt>
      <trkpt lat="48.6448" lon="7.16961">
        <ele>376.7</ele>
        <time>2023-09-30T13:09:55Z</time>
      </trkpt>
      <trkpt lat="48.64467" lon="7.16979">
        <ele>378.3</ele>
        <time>2023-09-30T13:10:04Z</time>
      </trkpt>
      <trkpt lat="48.64465" lon="7.16981">
        <ele>378.1</ele>
        <time>2023-09-30T13:10:05Z</time>
      </trkpt>
      <trkpt lat="48.64465" lon="7.16981">
        <ele>378</ele>
        <time>2023-09-30T13:10:08Z</time>
      </trkpt>
      <trkpt lat="48.64479" lon="7.16958">
        <ele>376.3</ele>
        <time>2023-09-30T13:10:18Z</time>
      </trkpt>
      <trkpt lat="48.64492" lon="7.16937">
        <ele>374.8</ele>
        <time>2023-09-30T13:10:26Z</time>
      </trkpt>
      <trkpt lat="48.64508" lon="7.1692">
        <ele>373.6</ele>
        <time>2023-09-30T13:10:34Z</time>
      </trkpt>
      <trkpt lat="48.64522" lon="7.16903">
        <ele>372.5</ele>
        <time>2023-09-30T13:10:43Z</time>
      </trkpt>
      <trkpt lat="48.64538" lon="7.16886">
        <ele>371.4</ele>
        <time>2023-09-30T13:10:51Z</time>
      </trkpt>
      <trkpt lat="48.64552" lon="7.16867">
        <ele>371.1</ele>
        <time>2023-09-30T13:10:59Z</time>
      </trkpt>
      <trkpt lat="48.64566" lon="7.16847">
        <ele>370.8</ele>
        <time>2023-09-30T13:11:07Z</time>
      </trkpt>
      <trkpt lat="48.64584" lon="7.16833">
        <ele>370.8</ele>
        <time>2023-09-30T13:11:15Z</time>
      </trkpt>
      <trkpt lat="48.646" lon="7.16818">
        <ele>370.8</ele>
        <time>2023-09-30T13:11:23Z</time>
      </trkpt>
      <trkpt lat="48.64617" lon="7.16802">
        <ele>370.7</ele>
        <time>2023-09-30T13:11:31Z</time>
      </trkpt>
      <trkpt lat="48.64633" lon="7.16791">
        <ele>370.7</ele>
        <time>2023-09-30T13:11:40Z</time>
      </trkpt>
      <trkpt lat="48.6465" lon="7.16779">
        <ele>370.5</ele>
        <time>2023-09-30T13:11:48Z</time>
      </trkpt>
      <trkpt lat="48.64666" lon="7.16762">
        <ele>370.3</ele>
        <time>2023-09-30T13:11:57Z</time>
      </trkpt>
      <trkpt lat="48.64681" lon="7.16745">
        <ele>370.2</ele>
        <time>2023-09-30T13:12:05Z</time>
      </trkpt>
      <trkpt lat="48.64697" lon="7.16732">
        <ele>370</ele>
        <time>2023-09-30T13:12:13Z</time>
      </trkpt>
      <trkpt lat="48.64715" lon="7.16722">
        <ele>370</ele>
        <time>2023-09-30T13:12:21Z</time>
      </trkpt>
      <trkpt lat="48.64734" lon="7.16724">
        <ele>370.2</ele>
        <time>2023-09-30T13:12:30Z</time>
      </trkpt>
      <trkpt lat="48.6475" lon="7.16738">
        <ele>370.2</ele>
        <time>2023-09-30T13:12:40Z</time>
      </trkpt>
      <trkpt lat="48.64762" lon="7.16759">
        <ele>370.4</ele>
        <time>2023-09-30T13:12:47Z</time>
      </trkpt>
      <trkpt lat="48.64774" lon="7.16781">
        <ele>370.4</ele>
        <time>2023-09-30T13:12:54Z</time>
      </trkpt>
      <trkpt lat="48.64784" lon="7.16806">
        <ele>370.3</ele>
        <time>2023-09-30T13:13:01Z</time>
      </trkpt>
      <trkpt lat="48.64794" lon="7.16831">
        <ele>370.4</ele>
        <time>2023-09-30T13:13:07Z</time>
      </trkpt>
      <trkpt lat="48.648" lon="7.16858">
        <ele>370.4</ele>
        <time>2023-09-30T13:13:14Z</time>
      </trkpt>
      <trkpt lat="48.64799" lon="7.16886">
        <ele>370.2</ele>
        <time>2023-09-30T13:13:22Z</time>
      </trkpt>
      <trkpt lat="48.64805" lon="7.16912">
        <ele>369.8</ele>
        <time>2023-09-30T13:13:30Z</time>
      </trkpt>
      <trkpt lat="48.64824" lon="7.1691">
        <ele>369.1</ele>
        <time>2023-09-30T13:13:38Z</time>
      </trkpt>
      <trkpt lat="48.64838" lon="7.1689">
        <ele>368.7</ele>
        <time>2023-09-30T13:13:46Z</time>
      </trkpt>
      <trkpt lat="48.64839" lon="7.16862">
        <ele>368.4</ele>
        <time>2023-09-30T13:13:55Z</time>
      </trkpt>
      <trkpt lat="48.64835" lon="7.16833">
        <ele>367.9</ele>
        <time>2023-09-30T13:14:02Z</time>
      </trkpt>
      <trkpt lat="48.64831" lon="7.16804">
        <ele>367.3</ele>
        <time>2023-09-30T13:14:09Z</time>
      </trkpt>
      <trkpt lat="48.64828" lon="7.16776">
        <ele>366.9</ele>
        <time>2023-09-30T13:14:17Z</time>
      </trkpt>
      <trkpt lat="48.64827" lon="7.16746">
        <ele>366.3</ele>
        <time>2023-09-30T13:14:25Z</time>
      </trkpt>
      <trkpt lat="48.64826" lon="7.16718">
        <ele>365.2</ele>
        <time>2023-09-30T13:14:33Z</time>
      </trkpt>
      <trkpt lat="48.64828" lon="7.16709">
        <ele>364.8</ele>
        <time>2023-09-30T13:14:37Z</time>
      </trkpt>
    </trkseg>
  </trk>
</gpx>